BIHL weather

Hella Airport
Hella, Southern Region, Iceland

Public forecast

Using degrees Celsius for public forecast. Weather courtesy of forecast.io.

METAR (pilot weather report)

Report is more than 6 hours old.

Closest report is Vestmannaeyjar Airport, 24.8 nm (46.0 km) S. Retrieved 2019/04/19 17:00 UTC (11 hours ago):

BIVM 191700Z 18023KT 6000 BR BKN005 BKN011 OVC023 08/08 Q1002

TAF (pilot weather forecast)

Closest forecast is Reykjavik Airport, 44.8 nm (83.0 km) WNW. Retrieved 2019/04/20 03:09 UTC (42 minutes ago):

TAF BIRK 200108Z 2003/2103 18016KT 9999 -SHRA BKN025 TX08/2015Z TN05/2006Z TEMPO 2003/2016 19020G30KT 4000 SHRA BKN014CB OVC025 BECMG 2015/2017 25015KT BECMG 2100/2103 23005KT